Newville, Indiana
Current Conditions -  °F | °C
As of 4:35 PM on Friday 24 Oct 2014 (Local Time) from KGWB Reporting Station
Broken Clouds Broken Clouds  
Wind Chill: 61°   Ceiling: 3200
Heat Index: 61°   Visibility: 10mi
Dew Point: 46°   Wind: 3mph
Humidity: 59%   Direction: 200°SSW
Pressure: 30.02"   Gusts: NA
Location:  41.4294°N, 84.8751°W
Report Text: KGWB 242035Z AUTO 20003KT 10SM BKN032 16/08 A3002 RMK AO2
Loading
Personal Weather Stations






























Interactive Weather Map New forecast layout! Learn more

10-Day Weather Forecast

Advertisements
Track Severe Weather on mobile